Greta — WDF3298 — position and weather

sailwx.info

Track history (hours):
 
Tides and Currents Weather Stations Pressure Air Temp Water Temp Dewpoint Dewpoint Depression Visibility Wind Speed Wind Dir Waves Ship Positions

Greta

Owner: General Electric Credit Corporation Of Tennessee, Seattle, WA. More information available from US FCC via Universal Licensing System and Coast Guard Vessel Documentation Center.

Last reported at 2016-Apr-22 11:30 UTC. Time now 2016-May-01 21:18 UTC.
Position N 58°17' W 136°21'.
Warning: this ship's position is 9 days out of date.

Length 44 m; draft 2 m.

Type: Ship. MMSI: 367438220.

Date/timePositionNaut miles runAvg speedWind from/ knotsBaromVisibWave heightAir tempDewpointWater temp
2016-Apr-22 11:30N 58°17' W 136°21'7 7.8
2016-Apr-22 10:33N 58°19' W 136°07'8 7.5
2016-Apr-22 09:33N 58°20' W 135°53'7 6.8
2016-Apr-22 08:33N 58°23' W 135°41'4 4.0
2016-Apr-22 07:33N 58°23' W 135°34'3 3.4
2016-Apr-22 06:33N 58°21' W 135°28'  
2016-Apr-18 06:28N 51°26' W 128°05'11 5.8
2016-Apr-18 04:33N 51°17' W 127°55'6 6.3
2016-Apr-18 03:32N 51°11' W 127°51'6 6.4
2016-Apr-18 02:33N 51°06' W 127°45'7 6.9
2016-Apr-18 01:34N 51°01' W 127°37'7 7.2
2016-Apr-18 00:33N 50°57' W 127°28'8 7.7
2016-Apr-17 23:33N 50°52' W 127°18'7 7.0
2016-Apr-17 22:33N 50°49' W 127°08'61 6.7
2016-Apr-17 13:29N 50°22' W 125°42'9 8.5
2016-Apr-17 12:23N 50°20' W 125°28'5 6.6
2016-Apr-17 11:33N 50°16' W 125°24'7 7.1
2016-Apr-17 10:33N 50°09' W 125°21'6 6.0
2016-Apr-17 09:34N 50°04' W 125°15'4 4.1
2016-Apr-17 08:33N 50°00' W 125°13'4 3.5
2016-Apr-17 07:33N 49°58' W 125°09'4 4.1
2016-Apr-17 06:33N 49°55' W 125°04'5 4.7
2016-Apr-17 05:34N 49°53' W 124°58'5 5.4
2016-Apr-17 04:33N 49°49' W 124°52'5 5.2
2016-Apr-17 03:33N 49°46' W 124°45'5 5.5
2016-Apr-17 02:33N 49°43' W 124°39'5 4.8
2016-Apr-17 01:33N 49°40' W 124°33'6 5.6
2016-Apr-17 00:33N 49°36' W 124°26'7 7.0
2016-Apr-16 23:33N 49°32' W 124°17'7 7.0
2016-Apr-16 22:33N 49°28' W 124°08'7 6.8
2016-Apr-16 21:33N 49°24' W 123°60'7 6.6
2016-Apr-16 20:33N 49°20' W 123°52'7 7.2
2016-Apr-16 19:33N 49°15' W 123°43'8 7.6
2016-Apr-16 18:33N 49°11' W 123°34'7 7.5
2016-Apr-16 17:33N 49°06' W 123°25'7 7.2
2016-Apr-16 16:33N 49°02' W 123°16'6 6.5
2016-Apr-16 15:33N 48°57' W 123°09'6 6.2
2016-Apr-16 14:33N 48°53' W 123°02'7 6.7
2016-Apr-16 13:33N 48°49' W 122°54'7 6.5
2016-Apr-16 12:32N 48°45' W 122°46'6 6.2
2016-Apr-16 11:33N 48°40' W 122°43'6 5.9
2016-Apr-16 10:33N 48°34' W 122°45'7 7.0
2016-Apr-16 09:33N 48°27' W 122°44'8 6.9
2016-Apr-16 08:26N 48°19' W 122°46'15 4.0
2016-Apr-16 04:33N 48°05' W 122°38'6 5.8
2016-Apr-16 03:31N 47°59' W 122°35'6 6.3
2016-Apr-16 02:33N 47°55' W 122°28'7 7.0
2016-Apr-16 01:33N 47°48' W 122°26'7 7.3
2016-Apr-16 00:33N 47°41' W 122°27'6 5.9
2016-Apr-15 23:34N 47°35' W 122°23'0 0.1
2016-Apr-15 22:33N 47°35' W 122°22'1 0.9
2016-Apr-15 21:33N 47°35' W 122°21'0 0.0
2016-Apr-15 20:33N 47°35' W 122°21'0 0.0
2016-Apr-15 19:33N 47°35' W 122°21'0 0.0
2016-Apr-15 18:33N 47°35' W 122°21'0 0.0
2016-Apr-15 17:33N 47°35' W 122°21'3 2.5
2016-Apr-15 16:33N 47°33' W 122°20'0 0.0
2016-Apr-15 15:33N 47°33' W 122°20'0 0.0
2016-Apr-15 14:33N 47°33' W 122°20'0 0.0
2016-Apr-15 13:33N 47°33' W 122°20'0 0.0
2016-Apr-15 12:33N 47°33' W 122°20'0 0.0
2016-Apr-15 11:33N 47°33' W 122°20'0 0.0
2016-Apr-15 10:33N 47°33' W 122°20'0 0.0
2016-Apr-15 09:33N 47°33' W 122°20'0 0.0
2016-Apr-15 08:33N 47°33' W 122°20'0 0.0
2016-Apr-15 07:33N 47°33' W 122°20'0 0.0
2016-Apr-15 06:33N 47°33' W 122°20'0 0.0
2016-Apr-15 05:33N 47°33' W 122°20'0 0.0
2016-Apr-15 04:33N 47°33' W 122°20'0 0.0
2016-Apr-15 03:33N 47°33' W 122°20'0 0.0
2016-Apr-15 02:33N 47°33' W 122°20'0 0.0
2016-Apr-15 01:33N 47°33' W 122°20'0 0.0
2016-Apr-15 00:33N 47°33' W 122°20'0 0.0
2016-Apr-14 23:33N 47°33' W 122°20'0 0.0
2016-Apr-14 22:33N 47°33' W 122°20'0 0.0
2016-Apr-14 21:33N 47°33' W 122°20'0 0.0
2016-Apr-14 20:33N 47°33' W 122°20'0 0.0
2016-Apr-14 19:33N 47°33' W 122°20'0 0.0
2016-Apr-14 18:33N 47°33' W 122°20'0 0.0
2016-Apr-14 17:33N 47°33' W 122°20'1 0.9
2016-Apr-14 16:33N 47°32' W 122°20'0 0.0
2016-Apr-14 15:33N 47°32' W 122°20'0 0.0
2016-Apr-14 14:33N 47°32' W 122°20'0 0.0
2016-Apr-14 13:33N 47°32' W 122°20'0 0.0
2016-Apr-14 12:33N 47°32' W 122°20'0 0.0
2016-Apr-14 11:33N 47°32' W 122°20'0 0.0
2016-Apr-14 10:33N 47°32' W 122°20'0 0.0
2016-Apr-14 09:33N 47°32' W 122°20'0 0.0
2016-Apr-14 08:33N 47°32' W 122°20'0 0.0
2016-Apr-14 07:33N 47°32' W 122°20'0 0.0
2016-Apr-14 06:33N 47°32' W 122°20'0 0.0
2016-Apr-14 05:33N 47°32' W 122°20'0 0.0
2016-Apr-14 04:33N 47°32' W 122°20'0 0.0
2016-Apr-14 03:33N 47°32' W 122°20'0 0.0
2016-Apr-14 02:33N 47°32' W 122°20'0 0.0
2016-Apr-14 01:33N 47°32' W 122°20'0 0.0
2016-Apr-14 00:33N 47°32' W 122°20'0 0.0
2016-Apr-13 23:33N 47°32' W 122°20'0 0.0
2016-Apr-13 22:33N 47°32' W 122°20'0 0.0
2016-Apr-13 21:33N 47°32' W 122°20'0 0.0
2016-Apr-13 20:33N 47°32' W 122°20'0 0.0
2016-Apr-13 19:33N 47°32' W 122°20'0 0.0
2016-Apr-13 18:33N 47°32' W 122°20'0 0.0
2016-Apr-13 17:33N 47°32' W 122°20'0 0.0
2016-Apr-13 16:33N 47°32' W 122°20'0 0.0
2016-Apr-13 15:33N 47°32' W 122°20'0 0.0
2016-Apr-13 14:33N 47°32' W 122°20'0 0.0
2016-Apr-13 13:33N 47°32' W 122°20'0 0.0
2016-Apr-13 12:33N 47°32' W 122°20'0 0.0
2016-Apr-13 11:33N 47°32' W 122°20'0 0.0
2016-Apr-13 10:33N 47°32' W 122°20'0 0.0
2016-Apr-13 09:33N 47°32' W 122°20'0 0.0
2016-Apr-13 08:34N 47°32' W 122°20'0 0.0
2016-Apr-13 07:33N 47°32' W 122°20'0 0.0
2016-Apr-13 06:33N 47°32' W 122°20'0 0.0
2016-Apr-13 05:33N 47°32' W 122°20'0 0.0
2016-Apr-13 04:33N 47°32' W 122°20'0 0.0
2016-Apr-13 03:33N 47°32' W 122°20'0 0.0
2016-Apr-13 02:33N 47°32' W 122°20'0 0.0
2016-Apr-13 01:33N 47°32' W 122°20'0 0.0
2016-Apr-13 00:33N 47°32' W 122°20'0 0.0
2016-Apr-12 23:33N 47°32' W 122°20'0 0.0
2016-Apr-12 22:33N 47°32' W 122°20'0 0.0
2016-Apr-12 21:33N 47°32' W 122°20'0 0.0
2016-Apr-12 20:33N 47°32' W 122°20'0 0.0
2016-Apr-12 19:33N 47°32' W 122°20'0 0.0
2016-Apr-12 18:33N 47°32' W 122°20'0 0.0
2016-Apr-12 17:34N 47°32' W 122°20'0 0.0
2016-Apr-12 16:33N 47°32' W 122°20'0 0.0
2016-Apr-12 15:33N 47°32' W 122°20'0 0.0
2016-Apr-12 14:33N 47°32' W 122°20'0 0.0
2016-Apr-12 13:33N 47°32' W 122°20'0 0.0
2016-Apr-12 12:33N 47°32' W 122°20'0 0.0
2016-Apr-12 11:33N 47°32' W 122°20'  
Track history (hours):
 
Tides and Currents Weather Stations Pressure Air Temp Water Temp Dewpoint Dewpoint Depression Visibility Wind Speed Wind Dir Waves Ship Positions

Greta

Owner: General Electric Credit Corporation Of Tennessee, Seattle, WA. More information available from US FCC via Universal Licensing System and Coast Guard Vessel Documentation Center.

Last reported at 2016-Apr-22 11:30 UTC. Time now 2016-May-01 21:18 UTC.
Position N 58°17' W 136°21'.
Warning: this ship's position is 9 days out of date.

Length 44 m; draft 2 m.

Type: Ship. MMSI: 367438220.

Date/timePositionNaut miles runAvg speedWind from/ knotsBaromVisibWave heightAir tempDewpointWater temp
2016-Apr-22 11:30N 58°17' W 136°21'7 7.8
2016-Apr-22 10:33N 58°19' W 136°07'8 7.5
2016-Apr-22 09:33N 58°20' W 135°53'7 6.8
2016-Apr-22 08:33N 58°23' W 135°41'4 4.0
2016-Apr-22 07:33N 58°23' W 135°34'3 3.4
2016-Apr-22 06:33N 58°21' W 135°28'  
2016-Apr-18 06:28N 51°26' W 128°05'11 5.8
2016-Apr-18 04:33N 51°17' W 127°55'6 6.3
2016-Apr-18 03:32N 51°11' W 127°51'6 6.4
2016-Apr-18 02:33N 51°06' W 127°45'7 6.9
2016-Apr-18 01:34N 51°01' W 127°37'7 7.2
2016-Apr-18 00:33N 50°57' W 127°28'8 7.7
2016-Apr-17 23:33N 50°52' W 127°18'7 7.0
2016-Apr-17 22:33N 50°49' W 127°08'61 6.7
2016-Apr-17 13:29N 50°22' W 125°42'9 8.5
2016-Apr-17 12:23N 50°20' W 125°28'5 6.6
2016-Apr-17 11:33N 50°16' W 125°24'7 7.1
2016-Apr-17 10:33N 50°09' W 125°21'6 6.0
2016-Apr-17 09:34N 50°04' W 125°15'4 4.1
2016-Apr-17 08:33N 50°00' W 125°13'4 3.5
2016-Apr-17 07:33N 49°58' W 125°09'4 4.1
2016-Apr-17 06:33N 49°55' W 125°04'5 4.7
2016-Apr-17 05:34N 49°53' W 124°58'5 5.4
2016-Apr-17 04:33N 49°49' W 124°52'5 5.2
2016-Apr-17 03:33N 49°46' W 124°45'5 5.5
2016-Apr-17 02:33N 49°43' W 124°39'5 4.8
2016-Apr-17 01:33N 49°40' W 124°33'6 5.6
2016-Apr-17 00:33N 49°36' W 124°26'7 7.0
2016-Apr-16 23:33N 49°32' W 124°17'7 7.0
2016-Apr-16 22:33N 49°28' W 124°08'7 6.8
2016-Apr-16 21:33N 49°24' W 123°60'7 6.6
2016-Apr-16 20:33N 49°20' W 123°52'7 7.2
2016-Apr-16 19:33N 49°15' W 123°43'8 7.6
2016-Apr-16 18:33N 49°11' W 123°34'7 7.5
2016-Apr-16 17:33N 49°06' W 123°25'7 7.2
2016-Apr-16 16:33N 49°02' W 123°16'6 6.5
2016-Apr-16 15:33N 48°57' W 123°09'6 6.2
2016-Apr-16 14:33N 48°53' W 123°02'7 6.7
2016-Apr-16 13:33N 48°49' W 122°54'7 6.5
2016-Apr-16 12:32N 48°45' W 122°46'6 6.2
2016-Apr-16 11:33N 48°40' W 122°43'6 5.9
2016-Apr-16 10:33N 48°34' W 122°45'7 7.0
2016-Apr-16 09:33N 48°27' W 122°44'8 6.9
2016-Apr-16 08:26N 48°19' W 122°46'15 4.0
2016-Apr-16 04:33N 48°05' W 122°38'6 5.8
2016-Apr-16 03:31N 47°59' W 122°35'6 6.3
2016-Apr-16 02:33N 47°55' W 122°28'7 7.0
2016-Apr-16 01:33N 47°48' W 122°26'7 7.3
2016-Apr-16 00:33N 47°41' W 122°27'6 5.9
2016-Apr-15 23:34N 47°35' W 122°23'0 0.1
2016-Apr-15 22:33N 47°35' W 122°22'1 0.9
2016-Apr-15 21:33N 47°35' W 122°21'0 0.0
2016-Apr-15 20:33N 47°35' W 122°21'0 0.0
2016-Apr-15 19:33N 47°35' W 122°21'0 0.0
2016-Apr-15 18:33N 47°35' W 122°21'0 0.0
2016-Apr-15 17:33N 47°35' W 122°21'3 2.5
2016-Apr-15 16:33N 47°33' W 122°20'0 0.0
2016-Apr-15 15:33N 47°33' W 122°20'0 0.0
2016-Apr-15 14:33N 47°33' W 122°20'0 0.0
2016-Apr-15 13:33N 47°33' W 122°20'0 0.0
2016-Apr-15 12:33N 47°33' W 122°20'0 0.0
2016-Apr-15 11:33N 47°33' W 122°20'0 0.0
2016-Apr-15 10:33N 47°33' W 122°20'0 0.0
2016-Apr-15 09:33N 47°33' W 122°20'0 0.0
2016-Apr-15 08:33N 47°33' W 122°20'0 0.0
2016-Apr-15 07:33N 47°33' W 122°20'0 0.0
2016-Apr-15 06:33N 47°33' W 122°20'0 0.0
2016-Apr-15 05:33N 47°33' W 122°20'0 0.0
2016-Apr-15 04:33N 47°33' W 122°20'0 0.0
2016-Apr-15 03:33N 47°33' W 122°20'0 0.0
2016-Apr-15 02:33N 47°33' W 122°20'0 0.0
2016-Apr-15 01:33N 47°33' W 122°20'0 0.0
2016-Apr-15 00:33N 47°33' W 122°20'0 0.0
2016-Apr-14 23:33N 47°33' W 122°20'0 0.0
2016-Apr-14 22:33N 47°33' W 122°20'0 0.0
2016-Apr-14 21:33N 47°33' W 122°20'0 0.0
2016-Apr-14 20:33N 47°33' W 122°20'0 0.0
2016-Apr-14 19:33N 47°33' W 122°20'0 0.0
2016-Apr-14 18:33N 47°33' W 122°20'0 0.0
2016-Apr-14 17:33N 47°33' W 122°20'1 0.9
2016-Apr-14 16:33N 47°32' W 122°20'0 0.0
2016-Apr-14 15:33N 47°32' W 122°20'0 0.0
2016-Apr-14 14:33N 47°32' W 122°20'0 0.0
2016-Apr-14 13:33N 47°32' W 122°20'0 0.0
2016-Apr-14 12:33N 47°32' W 122°20'0 0.0
2016-Apr-14 11:33N 47°32' W 122°20'0 0.0
2016-Apr-14 10:33N 47°32' W 122°20'0 0.0
2016-Apr-14 09:33N 47°32' W 122°20'0 0.0
2016-Apr-14 08:33N 47°32' W 122°20'0 0.0
2016-Apr-14 07:33N 47°32' W 122°20'0 0.0
2016-Apr-14 06:33N 47°32' W 122°20'0 0.0
2016-Apr-14 05:33N 47°32' W 122°20'0 0.0
2016-Apr-14 04:33N 47°32' W 122°20'0 0.0
2016-Apr-14 03:33N 47°32' W 122°20'0 0.0
2016-Apr-14 02:33N 47°32' W 122°20'0 0.0
2016-Apr-14 01:33N 47°32' W 122°20'0 0.0
2016-Apr-14 00:33N 47°32' W 122°20'0 0.0
2016-Apr-13 23:33N 47°32' W 122°20'0 0.0
2016-Apr-13 22:33N 47°32' W 122°20'0 0.0
2016-Apr-13 21:33N 47°32' W 122°20'0 0.0
2016-Apr-13 20:33N 47°32' W 122°20'0 0.0
2016-Apr-13 19:33N 47°32' W 122°20'0 0.0
2016-Apr-13 18:33N 47°32' W 122°20'0 0.0
2016-Apr-13 17:33N 47°32' W 122°20'0 0.0
2016-Apr-13 16:33N 47°32' W 122°20'0 0.0
2016-Apr-13 15:33N 47°32' W 122°20'0 0.0
2016-Apr-13 14:33N 47°32' W 122°20'0 0.0
2016-Apr-13 13:33N 47°32' W 122°20'0 0.0
2016-Apr-13 12:33N 47°32' W 122°20'0 0.0
2016-Apr-13 11:33N 47°32' W 122°20'0 0.0
2016-Apr-13 10:33N 47°32' W 122°20'0 0.0
2016-Apr-13 09:33N 47°32' W 122°20'0 0.0
2016-Apr-13 08:34N 47°32' W 122°20'0 0.0
2016-Apr-13 07:33N 47°32' W 122°20'0 0.0
2016-Apr-13 06:33N 47°32' W 122°20'0 0.0
2016-Apr-13 05:33N 47°32' W 122°20'0 0.0
2016-Apr-13 04:33N 47°32' W 122°20'0 0.0
2016-Apr-13 03:33N 47°32' W 122°20'0 0.0
2016-Apr-13 02:33N 47°32' W 122°20'0 0.0
2016-Apr-13 01:33N 47°32' W 122°20'0 0.0
2016-Apr-13 00:33N 47°32' W 122°20'0 0.0
2016-Apr-12 23:33N 47°32' W 122°20'0 0.0
2016-Apr-12 22:33N 47°32' W 122°20'0 0.0
2016-Apr-12 21:33N 47°32' W 122°20'0 0.0
2016-Apr-12 20:33N 47°32' W 122°20'0 0.0
2016-Apr-12 19:33N 47°32' W 122°20'0 0.0
2016-Apr-12 18:33N 47°32' W 122°20'0 0.0
2016-Apr-12 17:34N 47°32' W 122°20'0 0.0
2016-Apr-12 16:33N 47°32' W 122°20'0 0.0
2016-Apr-12 15:33N 47°32' W 122°20'0 0.0
2016-Apr-12 14:33N 47°32' W 122°20'0 0.0
2016-Apr-12 13:33N 47°32' W 122°20'0 0.0
2016-Apr-12 12:33N 47°32' W 122°20'0 0.0
2016-Apr-12 11:33N 47°32' W 122°20'  

Dump ship's entire track history